Time;durP1;ratioP1;P1;durP2;ratioP2;P2;SDS_P1;SDS_P2;PMS_P1;PMS_P2;Temp;Humidity;BMP_temperature;BMP_pressure;BME280_temperature;BME280_humidity;BME280_pressure;Samples;Min_cycle;Max_cycle;Signal;HPM_P1;HPM_P2
2021/11/10 00:01:33;;;;;;;2.13;1.67;;;0.20;73.40;;;;;;5079366;28;20025;-91
2021/11/10 00:03:59;;;;;;;2.28;1.80;;;0.10;73.30;;;;;;5078329;28;20028;-91
2021/11/10 00:06:25;;;;;;;1.48;1.33;;;0.10;74.10;;;;;;5078701;28;20077;-89
2021/11/10 00:08:51;;;;;;;1.92;1.70;;;0.00;73.80;;;;;;5078522;28;20028;-88
2021/11/10 00:11:18;;;;;;;2.65;1.58;;;0.00;74.50;;;;;;5077608;28;20101;-88
2021/11/10 00:13:43;;;;;;;2.10;1.63;;;0.00;74.50;;;;;;5078091;28;20458;-89
2021/11/10 00:16:09;;;;;;;4.03;1.70;;;-0.10;74.60;;;;;;5074525;28;20098;-88
2021/11/10 00:18:35;;;;;;;2.88;1.83;;;-0.10;74.80;;;;;;5075782;28;20029;-88
2021/11/10 00:21:01;;;;;;;2.30;1.67;;;-0.10;74.90;;;;;;5074589;28;20089;-88
2021/11/10 00:23:27;;;;;;;1.80;1.52;;;-0.10;74.60;;;;;;5081818;28;20451;-88
2021/11/10 00:25:53;;;;;;;2.63;1.85;;;-0.20;75.20;;;;;;5075488;28;20035;-88
2021/11/10 00:28:19;;;;;;;3.85;1.92;;;-0.20;75.30;;;;;;5075377;28;20390;-89
2021/11/10 00:30:44;;;;;;;3.28;1.80;;;-0.20;75.80;;;;;;5074304;28;20391;-88
2021/11/10 00:33:10;;;;;;;2.75;1.77;;;-0.20;76.40;;;;;;5074218;28;20466;-87
2021/11/10 00:35:36;;;;;;;2.88;2.03;;;-0.30;76.00;;;;;;5075507;28;20029;-88
2021/11/10 00:38:02;;;;;;;2.95;1.88;;;-0.30;76.80;;;;;;5073363;28;20434;-88
2021/11/10 00:40:28;;;;;;;2.58;2.00;;;-0.30;76.90;;;;;;5073906;28;20024;-90
2021/11/10 00:42:53;;;;;;;2.53;1.90;;;-0.40;77.00;;;;;;5074231;28;20040;-89
2021/11/10 00:45:19;;;;;;;2.75;2.15;;;-0.40;77.50;;;;;;5075388;28;20051;-89
2021/11/10 00:47:45;;;;;;;2.92;1.95;;;-0.40;76.80;;;;;;5082889;28;20019;-89
2021/11/10 00:50:11;;;;;;;3.85;2.10;;;-0.40;77.70;;;;;;5098785;28;20108;-89
2021/11/10 00:52:36;;;;;;;3.45;2.08;;;-0.40;77.80;;;;;;5099227;28;20016;-90
2021/11/10 00:55:03;;;;;;;2.58;1.70;;;-0.50;77.80;;;;;;5099011;28;20030;-88
2021/11/10 00:57:29;;;;;;;2.78;1.88;;;-0.50;78.10;;;;;;5099464;28;20402;-90
2021/11/10 00:59:55;;;;;;;10.75;2.30;;;-0.50;77.90;;;;;;5095951;28;20067;-89
2021/11/10 01:02:20;;;;;;;2.35;1.75;;;-0.60;78.30;;;;;;5091501;28;20025;-89
2021/11/10 01:04:46;;;;;;;2.58;1.85;;;-0.60;78.10;;;;;;5092005;28;20069;-92
2021/11/10 01:07:12;;;;;;;2.65;2.05;;;-0.60;78.20;;;;;;5074403;28;20016;-91
2021/11/10 01:09:43;;;;;;;2.92;2.10;;;-0.60;78.60;;;;;;5058848;28;20374;-90
2021/11/10 01:12:11;;;;;;;3.28;2.30;;;-0.70;78.90;;;;;;5058960;28;20035;-93
2021/11/10 01:14:37;;;;;;;5.13;2.40;;;-0.70;79.20;;;;;;5057665;28;20043;-89
2021/11/10 01:17:03;;;;;;;3.25;2.20;;;-0.70;79.60;;;;;;5040194;28;20102;-91
2021/11/10 01:19:29;;;;;;;4.53;2.10;;;-0.70;79.50;;;;;;5057627;28;20396;-89
2021/11/10 01:21:55;;;;;;;2.10;1.63;;;-0.70;79.30;;;;;;5057609;28;20028;-90
2021/11/10 01:24:21;;;;;;;3.35;2.17;;;-0.70;79.30;;;;;;5057247;28;20123;-91
2021/11/10 01:26:46;;;;;;;2.97;2.00;;;-0.80;79.80;;;;;;5057374;28;20123;-89
2021/11/10 01:29:12;;;;;;;4.10;2.30;;;-0.80;80.00;;;;;;5046447;28;20090;-90
2021/11/10 01:31:38;;;;;;;3.70;2.00;;;-0.80;79.80;;;;;;5054577;28;20025;-90
2021/11/10 01:34:07;;;;;;;4.22;2.60;;;-0.80;80.20;;;;;;5036386;28;20029;-89
2021/11/10 01:36:34;;;;;;;3.75;2.30;;;-0.90;80.40;;;;;;5054979;28;20159;-91
2021/11/10 01:39:00;;;;;;;2.30;1.90;;;-0.90;80.90;;;;;;5037029;28;20025;-91
2021/11/10 01:41:26;;;;;;;4.07;2.20;;;-0.90;81.30;;;;;;5036919;28;20082;-89
2021/11/10 01:43:53;;;;;;;3.65;2.20;;;-1.00;81.50;;;;;;5054836;28;20041;-90
2021/11/10 01:46:18;;;;;;;3.95;2.40;;;-1.00;81.60;;;;;;5036667;28;20040;-89
2021/11/10 01:48:44;;;;;;;4.35;2.67;;;-1.00;81.90;;;;;;5055865;28;20482;-90
2021/11/10 01:51:10;;;;;;;3.67;2.30;;;-1.10;82.00;;;;;;5056201;28;20029;-89
2021/11/10 01:53:36;;;;;;;4.40;2.70;;;-1.00;82.20;;;;;;5055783;28;20067;-88
2021/11/10 01:56:03;;;;;;;5.18;2.80;;;-1.10;82.30;;;;;;5055820;28;20032;-89
2021/11/10 01:58:29;;;;;;;3.75;2.50;;;-1.10;82.50;;;;;;5073875;28;20043;-89
2021/11/10 02:00:55;;;;;;;4.45;2.85;;;-1.10;83.20;;;;;;5055678;28;20108;-88
2021/11/10 02:03:21;;;;;;;8.27;3.25;;;-1.10;83.90;;;;;;5056115;28;20067;-88
2021/11/10 02:05:48;;;;;;;4.82;2.90;;;-1.20;84.20;;;;;;5056146;28;20028;-89
2021/11/10 02:08:14;;;;;;;4.25;2.47;;;-1.10;83.90;;;;;;5074164;28;20024;-88
2021/11/10 02:10:40;;;;;;;5.32;3.08;;;-1.20;83.30;;;;;;5056323;28;20024;-89
2021/11/10 02:13:07;;;;;;;4.35;2.75;;;-1.20;83.80;;;;;;5056239;28;20131;-89
2021/11/10 02:15:34;;;;;;;4.28;2.70;;;-1.20;84.30;;;;;;5062405;28;20051;-89
2021/11/10 02:18:01;;;;;;;5.93;3.38;;;-1.20;84.40;;;;;;5094749;28;20366;-88
2021/11/10 02:20:37;;;;;;;5.38;3.03;;;-1.20;84.80;;;;;;5075898;28;20113;-87
2021/11/10 02:23:04;;;;;;;5.60;3.17;;;-1.30;85.10;;;;;;5070582;28;20477;-87
2021/11/10 02:25:30;;;;;;;5.35;3.17;;;-1.30;85.10;;;;;;5093984;28;20077;-88
2021/11/10 02:27:57;;;;;;;5.90;3.40;;;-1.40;84.80;;;;;;5075863;28;20479;-88
2021/11/10 02:30:23;;;;;;;6.30;3.60;;;-1.40;86.30;;;;;;5093253;28;20105;-88
2021/11/10 02:33:01;;;;;;;6.47;3.67;;;-1.40;86.30;;;;;;5075828;28;20028;-88
2021/11/10 02:35:29;;;;;;;6.03;3.30;;;-1.40;87.30;;;;;;5094038;28;20036;-88
2021/11/10 02:38:02;;;;;;;6.05;3.50;;;-1.40;86.20;;;;;;5094032;28;20032;-88
2021/11/10 02:40:28;;;;;;;6.05;3.20;;;-1.40;86.40;;;;;;5094332;28;20112;-88
2021/11/10 02:42:55;;;;;;;5.57;2.85;;;-1.40;86.70;;;;;;5075634;28;20028;-89
2021/11/10 02:45:22;;;;;;;6.28;3.40;;;-1.40;86.30;;;;;;5076469;28;20450;-90
2021/11/10 02:47:49;;;;;;;7.63;3.55;;;-1.40;87.10;;;;;;5076063;28;20033;-89
2021/11/10 02:50:15;;;;;;;5.65;3.60;;;-1.30;87.10;;;;;;5078158;28;20114;-91
2021/11/10 02:52:41;;;;;;;8.25;4.57;;;-1.40;87.80;;;;;;5079881;28;20127;-89
2021/11/10 02:55:09;;;;;;;8.82;4.40;;;-1.50;88.00;;;;;;5079712;28;20123;-89
2021/11/10 02:57:35;;;;;;;8.63;4.88;;;-1.50;88.00;;;;;;5079504;28;20409;-88
2021/11/10 03:00:01;;;;;;;6.85;4.00;;;-1.50;89.00;;;;;;5079271;28;20077;-88
2021/11/10 03:02:29;;;;;;;10.18;4.15;;;-1.50;88.50;;;;;;5078992;28;20083;-89
2021/11/10 03:04:56;;;;;;;6.25;3.70;;;-1.50;88.80;;;;;;5079117;28;20020;-88
2021/11/10 03:07:21;;;;;;;5.57;3.30;;;-1.60;88.50;;;;;;5079135;28;20374;-87
2021/11/10 03:09:48;;;;;;;5.47;3.10;;;-1.60;88.00;;;;;;5078688;28;20035;-87
2021/11/10 03:12:15;;;;;;;5.07;3.03;;;-1.60;88.80;;;;;;5096880;28;20031;-87
2021/11/10 03:14:43;;;;;;;6.88;3.40;;;-1.60;89.00;;;;;;5078615;28;20046;-87
2021/11/10 03:17:14;;;;;;;6.07;3.55;;;-1.60;89.40;;;;;;5096737;28;20044;-88
2021/11/10 03:19:41;;;;;;;6.15;3.35;;;-1.60;89.40;;;;;;5078356;28;20024;-87
2021/11/10 03:22:09;;;;;;;5.30;3.33;;;-1.60;89.20;;;;;;5078099;28;20385;-88
2021/11/10 03:24:38;;;;;;;4.97;3.15;;;-1.60;89.40;;;;;;5078067;28;20503;-89
2021/11/10 03:27:04;;;;;;;5.40;2.95;;;-1.70;89.60;;;;;;5078708;28;20020;-88
2021/11/10 03:29:33;;;;;;;6.50;3.17;;;-1.70;89.60;;;;;;5078411;28;20498;-88
2021/11/10 03:31:58;;;;;;;4.00;2.47;;;-1.70;89.20;;;;;;5096802;28;20020;-88
2021/11/10 03:34:24;;;;;;;5.00;3.10;;;-1.70;89.40;;;;;;5078246;28;20031;-91
2021/11/10 03:36:50;;;;;;;6.18;3.00;;;-1.70;89.10;;;;;;5078416;28;20373;-88
2021/11/10 03:39:17;;;;;;;4.95;3.10;;;-1.70;89.10;;;;;;5078718;28;20073;-88
2021/11/10 03:41:44;;;;;;;4.65;2.60;;;-1.70;89.60;;;;;;5096783;28;20106;-89
2021/11/10 03:44:09;;;;;;;6.07;2.83;;;-1.80;89.20;;;;;;5079151;28;20078;-89
2021/11/10 03:46:37;;;;;;;5.25;2.92;;;-1.80;89.70;;;;;;5097361;28;20042;-90
2021/11/10 03:49:03;;;;;;;5.30;3.22;;;-1.80;89.80;;;;;;5079260;28;20032;-89
2021/11/10 03:51:30;;;;;;;5.57;3.33;;;-1.80;90.00;;;;;;5079747;28;20035;-91
2021/11/10 03:53:59;;;;;;;5.15;2.90;;;-1.80;89.80;;;;;;5097976;28;20029;-91
2021/11/10 03:56:25;;;;;;;4.18;2.80;;;-1.90;90.00;;;;;;5079855;28;20024;-90
2021/11/10 03:58:51;;;;;;;5.30;2.97;;;-1.80;90.40;;;;;;5084160;28;20035;-90
2021/11/10 04:01:18;;;;;;;6.07;2.90;;;-1.90;90.10;;;;;;5088898;28;20039;-91
2021/11/10 04:03:43;;;;;;;6.38;3.22;;;-1.80;90.00;;;;;;5105883;28;20089;-88
2021/11/10 04:06:11;;;;;;;7.10;3.35;;;-1.90;90.50;;;;;;5106626;28;20054;-86
2021/11/10 04:08:37;;;;;;;5.57;3.00;;;-1.90;90.70;;;;;;5102194;28;20059;-84
2021/11/10 04:11:04;;;;;;;4.95;3.17;;;-1.90;90.70;;;;;;5109649;28;20035;-87
2021/11/10 04:13:30;;;;;;;7.80;4.18;;;-1.90;90.80;;;;;;5100240;28;20032;-87
2021/11/10 04:15:58;;;;;;;7.63;4.32;;;-1.90;90.80;;;;;;5096872;28;20052;-88
2021/11/10 04:18:23;;;;;;;6.05;3.60;;;-1.90;91.00;;;;;;5079316;28;20031;-88
2021/11/10 04:20:50;;;;;;;5.18;3.50;;;-1.90;90.80;;;;;;5079295;28;20024;-89
2021/11/10 04:23:16;;;;;;;4.85;3.20;;;-1.90;90.90;;;;;;5078474;28;20036;-89
2021/11/10 04:25:42;;;;;;;4.82;2.95;;;-2.00;91.00;;;;;;5077929;28;20546;-87
2021/11/10 04:28:10;;;;;;;4.82;3.25;;;-2.00;90.80;;;;;;5077803;28;20043;-90
2021/11/10 04:30:37;;;;;;;4.68;3.20;;;-2.00;91.00;;;;;;5078127;28;20031;-90
2021/11/10 04:33:03;;;;;;;6.00;3.30;;;-2.00;90.80;;;;;;5069172;28;20052;-90
2021/11/10 04:35:29;;;;;;;5.90;3.05;;;-2.00;91.10;;;;;;5076769;28;20077;-91
2021/11/10 04:37:54;;;;;;;5.25;3.30;;;-2.00;90.80;;;;;;5075968;28;20186;-89
2021/11/10 04:40:20;;;;;;;5.47;3.30;;;-2.00;90.90;;;;;;5075872;28;20493;-90
2021/11/10 04:42:46;;;;;;;5.32;3.20;;;-2.00;90.80;;;;;;5057786;28;20532;-89
2021/11/10 04:45:19;;;;;;;6.22;3.45;;;-2.00;91.00;;;;;;5075422;28;20025;-90
2021/11/10 04:47:45;;;;;;;7.40;3.50;;;-2.00;90.90;;;;;;5075364;28;20031;-90
2021/11/10 04:50:11;;;;;;;5.50;3.60;;;-2.00;91.20;;;;;;5075320;28;20024;-95
2021/11/10 04:52:37;;;;;;;5.47;2.95;;;-2.10;91.20;;;;;;5058440;28;20032;-94
2021/11/10 04:55:05;;;;;;;5.70;3.10;;;-2.10;91.00;;;;;;5059992;28;20025;-93
2021/11/10 04:57:31;;;;;;;6.03;3.60;;;-2.10;91.10;;;;;;5076314;28;20029;-92
2021/11/10 04:59:56;;;;;;;7.95;3.40;;;-2.10;91.50;;;;;;5078507;28;20028;-91
2021/11/10 05:02:25;;;;;;;7.68;3.25;;;-2.10;91.10;;;;;;5060008;28;20085;-93
2021/11/10 05:04:54;;;;;;;5.03;3.17;;;-2.20;91.30;;;;;;5059314;28;20102;-92
2021/11/10 05:07:22;;;;;;;6.88;3.72;;;-2.20;91.30;;;;;;5075297;28;20108;-94
2021/11/10 05:09:52;;;;;;;5.63;3.03;;;-2.20;91.10;;;;;;5081301;28;20032;-93
2021/11/10 05:12:21;;;;;;;7.15;3.25;;;-2.20;91.30;;;;;;5079769;28;20167;-94
2021/11/10 05:14:47;;;;;;;5.90;3.30;;;-2.20;91.30;;;;;;5061727;28;20055;-91
2021/11/10 05:17:13;;;;;;;4.18;2.88;;;-2.10;91.30;;;;;;5063924;28;20056;-92
2021/11/10 05:19:39;;;;;;;5.68;3.50;;;-2.10;91.10;;;;;;5057313;28;20052;-90
2021/11/10 05:22:05;;;;;;;4.82;3.28;;;-2.10;91.10;;;;;;5075196;28;20029;-90
2021/11/10 05:24:31;;;;;;;6.72;3.60;;;-2.10;90.90;;;;;;5057054;28;20035;-92
2021/11/10 05:26:57;;;;;;;6.53;3.47;;;-2.10;90.90;;;;;;5059631;28;20511;-90
2021/11/10 05:29:23;;;;;;;7.05;3.40;;;-2.10;91.30;;;;;;5058272;28;20155;-90
2021/11/10 05:31:49;;;;;;;6.93;3.85;;;-2.10;91.30;;;;;;5082143;28;20025;-87
2021/11/10 05:34:15;;;;;;;6.97;3.88;;;-2.00;91.20;;;;;;5073653;28;20032;-90
2021/11/10 05:36:42;;;;;;;8.35;4.30;;;-2.00;91.10;;;;;;5080205;28;20017;-89
2021/11/10 05:39:08;;;;;;;9.52;4.60;;;-2.00;91.20;;;;;;5064537;28;20028;-88
2021/11/10 05:41:34;;;;;;;6.55;3.70;;;-2.00;91.40;;;;;;5064235;28;20016;-87
2021/11/10 05:44:00;;;;;;;8.00;4.10;;;-2.00;91.10;;;;;;5080362;28;20084;-89
2021/11/10 05:46:26;;;;;;;8.25;4.60;;;-1.90;91.30;;;;;;5078835;28;20013;-88
2021/11/10 05:48:52;;;;;;;7.80;4.40;;;-1.90;91.40;;;;;;5080706;28;20029;-88
2021/11/10 05:51:18;;;;;;;8.23;4.50;;;-1.90;91.20;;;;;;5072383;28;20029;-89
2021/11/10 05:53:46;;;;;;;7.70;4.38;;;-1.80;91.20;;;;;;5057520;28;20033;-90
2021/11/10 05:56:17;;;;;;;7.65;4.20;;;-1.80;91.20;;;;;;5067689;28;20021;-89
2021/11/10 05:58:43;;;;;;;10.50;4.95;;;-1.70;91.00;;;;;;5073482;28;20031;-88
2021/11/10 06:01:09;;;;;;;9.48;5.03;;;-1.70;91.30;;;;;;5056270;28;20033;-88
2021/11/10 06:03:35;;;;;;;10.45;5.28;;;-1.60;91.30;;;;;;5056430;28;20071;-88
2021/11/10 06:06:01;;;;;;;11.45;5.82;;;-1.50;91.30;;;;;;5054022;28;20052;-89
2021/11/10 06:08:26;;;;;;;11.90;6.10;;;-1.50;91.10;;;;;;5062711;28;20072;-88
2021/11/10 06:10:52;;;;;;;11.98;6.28;;;-1.40;91.50;;;;;;5064975;28;20371;-87
2021/11/10 06:13:18;;;;;;;11.85;6.10;;;-1.30;91.40;;;;;;5051058;28;20025;-85
2021/11/10 06:15:43;;;;;;;12.30;6.72;;;-1.30;91.50;;;;;;5078573;28;20144;-80
2021/11/10 06:18:09;;;;;;;12.57;6.20;;;-1.20;91.90;;;;;;5075734;28;20028;-84
2021/11/10 06:20:35;;;;;;;10.70;5.68;;;-1.00;91.20;;;;;;5080190;28;20024;-85
2021/11/10 06:23:03;;;;;;;9.65;5.10;;;-0.90;90.70;;;;;;5064784;28;20037;-85
2021/11/10 06:25:29;;;;;;;10.82;5.55;;;-0.80;90.60;;;;;;5084640;28;20037;-85
2021/11/10 06:27:55;;;;;;;10.20;5.65;;;-0.70;90.60;;;;;;5078001;28;20047;-80
2021/11/10 06:30:23;;;;;;;11.20;5.57;;;-0.60;90.30;;;;;;5098011;28;20446;-81
2021/11/10 06:32:49;;;;;;;9.45;5.38;;;-0.40;90.70;;;;;;5097823;28;20028;-83
2021/11/10 06:35:15;;;;;;;17.77;9.55;;;-0.20;92.20;;;;;;5079804;28;20034;-88
2021/11/10 06:37:40;;;;;;;24.33;11.50;;;0.30;94.40;;;;;;5079585;28;20035;-83
2021/11/10 06:40:08;;;;;;;14.65;8.25;;;0.90;95.70;;;;;;5097684;28;20024;-83
2021/11/10 06:42:34;;;;;;;12.20;6.57;;;1.50;95.00;;;;;;5077562;28;20527;-86
2021/11/10 06:45:00;;;;;;;9.10;5.57;;;2.10;93.60;;;;;;5086562;28;20115;-86
2021/11/10 06:47:27;;;;;;;9.93;4.78;;;2.60;91.40;;;;;;5059324;28;20025;-86
2021/11/10 06:49:53;;;;;;;49.80;22.17;;;3.00;91.20;;;;;;5058955;28;20044;-87
2021/11/10 06:52:19;;;;;;;18.38;9.05;;;3.40;90.70;;;;;;5084911;28;20103;-82
2021/11/10 06:54:45;;;;;;;11.80;6.22;;;3.90;90.00;;;;;;5079033;28;20487;-88
2021/11/10 06:57:11;;;;;;;8.93;4.68;;;4.40;87.10;;;;;;5076989;28;20073;-89
2021/11/10 06:59:36;;;;;;;7.45;3.90;;;4.70;81.70;;;;;;5074494;28;20124;-84
2021/11/10 07:02:02;;;;;;;5.97;3.88;;;5.00;81.40;;;;;;5058888;28;20037;-83
2021/11/10 07:04:29;;;;;;;6.75;3.42;;;5.10;79.40;;;;;;5058527;28;20028;-83
2021/11/10 07:06:55;;;;;;;6.15;3.72;;;5.30;78.70;;;;;;5082211;28;20385;-82
2021/11/10 07:09:21;;;;;;;10.30;5.78;;;5.50;78.40;;;;;;5074086;28;20033;-89
2021/11/10 07:11:47;;;;;;;11.75;5.18;;;5.80;76.40;;;;;;5058713;28;20223;-82
2021/11/10 07:14:13;;;;;;;8.68;4.57;;;6.20;75.10;;;;;;5072652;28;20081;-85
2021/11/10 07:16:38;;;;;;;9.27;5.28;;;6.50;73.00;;;;;;5078462;28;20044;-83
2021/11/10 07:19:04;;;;;;;10.15;4.50;;;6.80;72.80;;;;;;5078387;28;20160;-81
2021/11/10 07:21:30;;;;;;;7.60;4.47;;;6.90;71.80;;;;;;5078347;28;20020;-82
2021/11/10 07:23:57;;;;;;;7.85;4.55;;;7.10;71.30;;;;;;5075289;28;20028;-84
2021/11/10 07:26:24;;;;;;;7.43;3.95;;;7.20;70.20;;;;;;5077119;28;20117;-83
2021/11/10 07:28:52;;;;;;;30.98;17.35;;;7.40;70.50;;;;;;5096496;28;20031;-83
2021/11/10 07:31:17;;;;;;;16.45;9.27;;;7.60;68.10;;;;;;5078407;28;20108;-82
2021/11/10 07:33:43;;;;;;;11.18;6.45;;;8.00;68.10;;;;;;5078166;28;20052;-82
2021/11/10 07:36:09;;;;;;;10.50;5.93;;;8.40;66.30;;;;;;5094857;28;20029;-82
2021/11/10 07:38:40;;;;;;;8.18;5.20;;;8.60;65.30;;;;;;5094564;28;20446;-83
2021/11/10 07:41:07;;;;;;;10.02;5.60;;;8.90;64.70;;;;;;5095075;28;20038;-82
2021/11/10 07:43:33;;;;;;;7.32;4.38;;;9.00;64.10;;;;;;5094963;28;20032;-83
2021/11/10 07:46:08;;;;;;;6.72;4.10;;;9.10;61.80;;;;;;5077008;28;20078;-83
2021/11/10 07:48:34;;;;;;;6.25;3.50;;;9.20;62.10;;;;;;5095460;28;20038;-84
2021/11/10 07:51:00;;;;;;;6.25;3.67;;;9.40;60.00;;;;;;5095733;28;20025;-84
2021/11/10 07:53:26;;;;;;;7.28;3.83;;;9.50;59.60;;;;;;5078288;28;20039;-83
2021/11/10 07:55:51;;;;;;;6.18;3.80;;;9.70;59.20;;;;;;5096530;28;20020;-86
2021/11/10 07:58:17;;;;;;;5.55;3.60;;;9.70;59.10;;;;;;5078582;28;20078;-86
2021/11/10 08:00:43;;;;;;;5.50;4.00;;;9.90;58.40;;;;;;5096429;28;20479;-91
2021/11/10 08:03:08;;;;;;;6.43;3.80;;;10.00;57.10;;;;;;5078712;28;20036;-86
2021/11/10 08:05:35;;;;;;;5.60;3.58;;;10.20;56.20;;;;;;5077972;28;20103;-82
2021/11/10 08:08:01;;;;;;;5.28;3.20;;;10.60;56.50;;;;;;5077616;28;20457;-85
2021/11/10 08:10:27;;;;;;;4.93;2.80;;;10.60;55.30;;;;;;5096065;28;20024;-85
2021/11/10 08:12:53;;;;;;;4.72;3.08;;;10.90;55.80;;;;;;5096010;28;20031;-84
2021/11/10 08:15:19;;;;;;;6.22;2.45;;;11.10;54.40;;;;;;5078125;28;20024;-84
2021/11/10 08:17:45;;;;;;;4.25;2.35;;;11.10;53.40;;;;;;5078120;28;20123;-85
2021/11/10 08:20:16;;;;;;;3.72;2.45;;;11.30;53.20;;;;;;5095909;28;20031;-85
2021/11/10 08:22:44;;;;;;;3.97;2.40;;;11.30;52.70;;;;;;5095741;28;20437;-83
2021/11/10 08:25:11;;;;;;;3.50;1.98;;;11.50;52.60;;;;;;5077757;28;20038;-83
2021/11/10 08:27:37;;;;;;;4.15;2.42;;;11.60;51.70;;;;;;5077726;28;20466;-84
2021/11/10 08:30:05;;;;;;;5.60;3.90;;;11.70;51.10;;;;;;5095666;28;20031;-90
2021/11/10 08:32:32;;;;;;;16.05;9.93;;;11.70;50.50;;;;;;5077423;28;20020;-83
2021/11/10 08:34:58;;;;;;;9.68;6.18;;;11.60;49.00;;;;;;5095499;28;20396;-83
2021/11/10 08:37:24;;;;;;;6.93;4.15;;;11.80;49.40;;;;;;5095181;28;20081;-83
2021/11/10 08:39:50;;;;;;;5.18;3.30;;;11.80;48.60;;;;;;5095299;28;20088;-82
2021/11/10 08:42:15;;;;;;;5.20;3.20;;;11.90;48.70;;;;;;5095291;28;20073;-82
2021/11/10 08:44:45;;;;;;;5.15;3.28;;;12.00;48.80;;;;;;5077044;28;20027;-83
2021/11/10 08:47:12;;;;;;;4.73;3.20;;;12.20;48.50;;;;;;5094325;28;20016;-82
2021/11/10 08:49:38;;;;;;;6.18;3.67;;;12.40;48.30;;;;;;5077181;28;20027;-83
2021/11/10 08:52:04;;;;;;;5.53;3.53;;;12.60;47.60;;;;;;5095461;28;20047;-92
2021/11/10 08:54:30;;;;;;;12.85;7.93;;;12.70;46.30;;;;;;5076896;28;20028;-81
2021/11/10 08:56:58;;;;;;;7.72;5.10;;;12.90;46.30;;;;;;5095081;28;20031;-81
2021/11/10 08:59:24;;;;;;;7.72;4.32;;;13.10;45.60;;;;;;5095249;28;20039;-80
2021/11/10 09:01:54;;;;;;;7.43;3.92;;;13.20;45.70;;;;;;5095129;28;20027;-81
2021/11/10 09:04:21;;;;;;;6.15;3.78;;;13.40;44.90;;;;;;5094613;28;20035;-81
2021/11/10 09:06:48;;;;;;;7.63;3.65;;;13.40;45.00;;;;;;5094572;28;20031;-81
2021/11/10 09:09:15;;;;;;;6.95;3.63;;;13.50;44.60;;;;;;5094372;28;20458;-81
2021/11/10 09:11:41;;;;;;;6.60;4.25;;;13.90;44.70;;;;;;5094195;28;20044;-82
2021/11/10 09:14:07;;;;;;;6.53;3.90;;;14.00;43.80;;;;;;5076600;28;20051;-83
2021/11/10 09:16:33;;;;;;;7.40;4.20;;;14.30;43.40;;;;;;5094587;28;20040;-82
2021/11/10 09:18:59;;;;;;;6.32;4.00;;;14.50;42.90;;;;;;5076586;28;20032;-90
2021/11/10 09:21:26;;;;;;;30.67;24.58;;;14.60;42.40;;;;;;5094468;28;20351;-85
2021/11/10 09:23:52;;;;;;;12.40;9.70;;;14.60;41.30;;;;;;5094458;28;20043;-82
2021/11/10 09:26:18;;;;;;;7.68;5.65;;;14.70;40.70;;;;;;5076253;28;20025;-82
2021/11/10 09:28:43;;;;;;;6.40;4.25;;;14.90;41.30;;;;;;5076384;28;20149;-83
2021/11/10 09:31:09;;;;;;;4.85;3.17;;;14.90;40.90;;;;;;5094339;28;20024;-84
2021/11/10 09:33:39;;;;;;;5.25;2.97;;;15.00;40.80;;;;;;5094713;28;20061;-84
2021/11/10 09:36:05;;;;;;;4.90;2.97;;;15.20;40.20;;;;;;5095256;28;20471;-85
2021/11/10 09:38:31;;;;;;;6.78;2.83;;;15.30;40.30;;;;;;5094577;28;20028;-84
2021/11/10 09:41:00;;;;;;;4.13;2.78;;;15.40;40.20;;;;;;5094545;28;20024;-83
2021/11/10 09:43:38;;;;;;;3.63;2.50;;;15.40;40.40;;;;;;5076263;28;20039;-83
2021/11/10 09:46:05;;;;;;;5.22;2.88;;;15.50;38.00;;;;;;5095106;28;20028;-83
2021/11/10 09:48:32;;;;;;;10.35;3.08;;;15.40;38.90;;;;;;5075909;28;20035;-85
2021/11/10 09:50:58;;;;;;;4.57;2.70;;;15.40;39.00;;;;;;5075953;28;20028;-85
2021/11/10 09:53:24;;;;;;;98.68;73.43;;;15.40;38.50;;;;;;5105165;28;20523;-91
2021/11/10 09:55:50;;;;;;;22.23;16.02;;;15.80;38.50;;;;;;5077822;28;20020;-83
2021/11/10 09:58:16;;;;;;;10.00;6.32;;;16.20;38.60;;;;;;5075727;28;20382;-84
2021/11/10 10:00:55;;;;;;;6.82;3.58;;;16.50;37.50;;;;;;5075853;28;20028;-84
2021/11/10 10:03:22;;;;;;;4.03;2.85;;;16.80;35.50;;;;;;5094143;28;20035;-84
2021/11/10 10:05:49;;;;;;;4.10;2.90;;;17.00;36.30;;;;;;5094188;28;20062;-85
2021/11/10 10:08:16;;;;;;;3.15;2.50;;;17.10;36.10;;;;;;5093965;28;20028;-85
2021/11/10 10:10:43;;;;;;;4.13;2.40;;;17.20;36.20;;;;;;5082696;28;20024;-85
2021/11/10 10:13:09;;;;;;;3.42;2.60;;;17.20;36.00;;;;;;5078166;28;20089;-84
2021/11/10 10:15:36;;;;;;;5.05;2.90;;;17.20;35.10;;;;;;5082178;28;20032;-87
2021/11/10 10:18:31;;;;;;;3.78;2.63;;;17.20;35.10;;;;;;5095748;28;20024;-85
2021/11/10 10:21:06;;;;;;;3.67;2.42;;;17.20;34.70;;;;;;5092687;28;20020;-86
2021/11/10 10:23:35;;;;;;;4.13;2.42;;;17.10;32.80;;;;;;5100061;28;20036;-85
2021/11/10 10:26:05;;;;;;;4.55;2.90;;;17.10;34.80;;;;;;5114399;28;20036;-83
2021/11/10 10:28:37;;;;;;;5.40;3.20;;;17.30;34.80;;;;;;5100154;28;20015;-83
2021/11/10 10:31:13;;;;;;;13.68;10.05;;;17.30;34.50;;;;;;5116746;28;20009;-91
2021/11/10 10:33:42;;;;;;;7.30;4.85;;;17.30;34.80;;;;;;5098201;28;20008;-84
2021/11/10 10:36:19;;;;;;;6.25;4.35;;;17.50;34.80;;;;;;5100361;28;20055;-87
2021/11/10 10:38:53;;;;;;;6.78;4.00;;;17.70;34.90;;;;;;5097303;28;20024;-87
2021/11/10 10:41:28;;;;;;;5.43;3.25;;;17.80;32.60;;;;;;5091531;28;20042;-89
2021/11/10 10:43:55;;;;;;;5.35;3.30;;;17.80;33.70;;;;;;5108411;28;20028;-86
2021/11/10 10:46:27;;;;;;;4.25;3.05;;;17.90;33.30;;;;;;5099191;28;20111;-86
2021/11/10 10:49:32;;;;;;;4.93;3.00;;;17.80;32.60;;;;;;5076634;28;20101;-86
2021/11/10 10:52:18;;;;;;;5.65;3.03;;;17.90;30.20;;;;;;5075609;28;20028;-87
2021/11/10 10:54:46;;;;;;;5.80;3.80;;;18.10;30.00;;;;;;5094150;28;20024;-85
2021/11/10 10:57:39;;;;;;;5.63;3.47;;;18.20;32.90;;;;;;5094061;28;20059;-84
2021/11/10 11:00:10;;;;;;;20.10;14.32;;;18.30;32.50;;;;;;5094074;28;20084;-86
2021/11/10 11:02:36;;;;;;;8.45;6.03;;;17.90;31.20;;;;;;5093568;28;20047;-83
2021/11/10 11:05:02;;;;;;;5.75;3.97;;;17.70;31.80;;;;;;5075849;28;20344;-83
2021/11/10 11:07:30;;;;;;;4.50;2.90;;;17.60;32.10;;;;;;5075391;28;20457;-81
2021/11/10 11:09:56;;;;;;;4.18;2.55;;;17.90;31.30;;;;;;5094352;28;20036;-81
2021/11/10 11:12:29;;;;;;;2.55;1.95;;;17.90;30.80;;;;;;5079184;28;20073;-81
2021/11/10 11:17:41;;;;;;;2.97;1.92;;;18.00;27.60;;;;;;5096949;28;20486;-83
2021/11/10 11:20:13;;;;;;;4.35;1.88;;;17.80;29.50;;;;;;5097143;28;20042;-85
2021/11/10 11:22:45;;;;;;;3.13;2.05;;;17.90;29.30;;;;;;5079182;28;20024;-84
2021/11/10 11:25:39;;;;;;;4.75;2.58;;;18.20;29.20;;;;;;5078781;28;20377;-84
2021/11/10 11:28:12;;;;;;;4.80;2.60;;;18.40;29.80;;;;;;5083462;28;20036;-83
2021/11/10 11:30:52;;;;;;;3.60;2.40;;;18.40;29.50;;;;;;5097121;28;20024;-84
2021/11/10 11:33:23;;;;;;;4.28;2.60;;;18.50;29.70;;;;;;5096816;28;20044;-84
2021/11/10 11:35:53;;;;;;;4.28;2.60;;;18.70;29.80;;;;;;5078716;28;20052;-81
2021/11/10 11:38:24;;;;;;;4.15;2.72;;;18.80;29.50;;;;;;5078910;28;20023;-82
2021/11/10 11:40:55;;;;;;;4.80;3.20;;;18.80;30.00;;;;;;5078215;28;20035;-84
2021/11/10 11:43:24;;;;;;;;;;;18.90;30.00;;;;;;5096975;28;20024;-88
2021/11/10 11:45:51;;;;;;;7.05;5.10;;;18.70;26.90;;;;;;5078692;28;19904;-82
2021/11/10 11:48:22;;;;;;;4.47;3.20;;;19.00;29.60;;;;;;5078423;28;20462;-83
2021/11/10 11:50:49;;;;;;;3.92;2.78;;;19.30;29.30;;;;;;5096355;28;20031;-83
2021/11/10 11:53:15;;;;;;;3.58;2.20;;;19.50;29.10;;;;;;5096098;28;20077;-83
2021/11/10 11:55:58;;;;;;;3.30;2.10;;;19.50;29.00;;;;;;5078043;28;20035;-81
2021/11/10 11:58:30;;;;;;;2.55;1.92;;;19.50;28.70;;;;;;5096996;28;20099;-82
2021/11/10 12:01:08;;;;;;;3.60;2.53;;;19.40;28.30;;;;;;5096350;28;20020;-83
2021/11/10 12:03:38;;;;;;;5.43;2.42;;;19.40;28.30;;;;;;5078376;28;20084;-82
2021/11/10 12:06:03;;;;;;;3.93;2.40;;;19.20;28.80;;;;;;5095940;28;20020;-83
2021/11/10 12:08:48;;;;;;;2.97;2.13;;;19.00;28.60;;;;;;5077938;28;20377;-84
2021/11/10 12:11:23;;;;;;;3.47;2.33;;;18.90;27.10;;;;;;5078062;28;20028;-83
2021/11/10 12:14:13;;;;;;;5.50;2.70;;;18.80;28.50;;;;;;5077807;28;20024;-83
2021/11/10 12:17:00;;;;;;;4.28;2.40;;;19.00;28.20;;;;;;5067431;28;20048;-83
2021/11/10 12:19:53;;;;;;;3.70;2.50;;;18.80;28.40;;;;;;5057716;28;20064;-83
2021/11/10 12:22:21;;;;;;;4.47;2.53;;;18.30;27.60;;;;;;5074320;28;20492;-82
2021/11/10 12:24:54;;;;;;;5.40;3.10;;;18.30;29.20;;;;;;5075314;28;20068;-82
2021/11/10 12:27:32;;;;;;;4.60;2.88;;;18.40;29.30;;;;;;5057782;28;20051;-83
2021/11/10 12:30:01;;;;;;;3.75;2.38;;;18.70;27.90;;;;;;5057655;28;20032;-82
2021/11/10 12:32:29;;;;;;;4.97;2.38;;;18.60;29.40;;;;;;5057754;28;20048;-84
2021/11/10 12:34:56;;;;;;;5.63;3.20;;;18.70;29.10;;;;;;5075781;28;20153;-82
2021/11/10 12:37:31;;;;;;;4.72;3.10;;;18.70;29.20;;;;;;5075123;28;20528;-83
2021/11/10 12:40:12;;;;;;;5.70;2.92;;;18.60;28.80;;;;;;5075220;28;20027;-83
2021/11/10 12:42:51;;;;;;;3.92;2.40;;;18.60;29.10;;;;;;5057342;28;20029;-83
2021/11/10 12:45:31;;;;;;;5.38;2.60;;;18.40;28.30;;;;;;5075733;28;20039;-82
2021/11/10 12:47:58;;;;;;;;;;;18.30;28.50;;;;;;5057410;28;20028;-82
2021/11/10 12:50:36;;;;;;;4.07;2.67;;;18.00;27.80;;;;;;5057365;28;20266;-82
2021/11/10 12:53:10;;;;;;;4.72;2.88;;;18.20;29.20;;;;;;5056767;28;20111;-83
2021/11/10 12:55:49;;;;;;;4.20;2.63;;;18.30;29.30;;;;;;5057010;28;20024;-83